createdAt,value
2022-12-01T00:01:20.913Z,77.36
2022-12-01T00:03:47.977Z,77.32
2022-12-01T00:06:18.177Z,77.32
2022-12-01T00:09:06.338Z,77.33
2022-12-01T00:11:35.164Z,77.41
2022-12-01T00:14:03.056Z,77.51
2022-12-01T00:16:30.614Z,77.46
2022-12-01T00:18:57.366Z,77.41
2022-12-01T00:21:26.284Z,77.51
2022-12-01T00:23:55.947Z,77.52
2022-12-01T00:26:24.450Z,77.55
2022-12-01T00:28:54.407Z,77.61
2022-12-01T00:31:22.497Z,77.60
2022-12-01T00:33:49.607Z,77.62
2022-12-01T00:36:16.275Z,77.60
2022-12-01T00:38:42.953Z,77.67
2022-12-01T00:41:09.660Z,77.77
2022-12-01T00:43:36.335Z,78.13
2022-12-01T00:46:03.757Z,78.18
2022-12-01T00:48:30.379Z,78.59
2022-12-01T00:50:57.003Z,78.26
2022-12-01T00:53:24.719Z,78.35
2022-12-01T00:55:53.894Z,78.28
2022-12-01T00:58:21.804Z,78.76
2022-12-01T01:00:48.915Z,78.99
2022-12-01T01:03:15.904Z,78.98
2022-12-01T01:05:43.880Z,78.98
2022-12-01T01:08:14.821Z,78.65
2022-12-01T01:10:44.877Z,78.86
2022-12-01T01:13:12.914Z,78.75
2022-12-01T01:15:40.668Z,78.69
2022-12-01T01:18:09.743Z,78.53
2022-12-01T01:20:36.421Z,78.61
2022-12-01T01:23:03.751Z,78.31
2022-12-01T01:25:32.560Z,78.42
2022-12-01T01:27:59.253Z,78.15
2022-12-01T01:30:26.006Z,78.01
2022-12-01T01:32:52.738Z,77.94
2022-12-01T01:35:19.371Z,77.85
2022-12-01T01:37:46.086Z,77.91
2022-12-01T01:40:12.622Z,77.91
2022-12-01T01:42:39.272Z,77.99
2022-12-01T01:45:26.089Z,77.92
2022-12-01T01:47:54.565Z,78.11
2022-12-01T01:50:26.026Z,78.20
2022-12-01T01:53:01.553Z,78.22
2022-12-01T01:55:30.633Z,78.29
2022-12-01T01:57:57.525Z,78.32
2022-12-01T02:00:24.224Z,78.34
2022-12-01T02:02:52.256Z,78.29
2022-12-01T02:05:28.475Z,78.19
2022-12-01T02:07:58.747Z,78.20
2022-12-01T02:11:12.685Z,78.24
2022-12-01T02:13:48.248Z,78.55
2022-12-01T02:16:45.184Z,78.74
2022-12-01T02:19:36.826Z,78.95
2022-12-01T02:22:23.506Z,79.06
2022-12-01T02:25:12.961Z,79.09
2022-12-01T02:27:53.591Z,79.02
2022-12-01T02:30:41.657Z,78.97
2022-12-01T02:33:20.569Z,78.92
2022-12-01T02:36:29.364Z,79.03
2022-12-01T02:39:29.873Z,79.32
2022-12-01T02:42:05.992Z,79.38
2022-12-01T02:44:40.103Z,79.56
2022-12-01T02:47:16.127Z,79.50
2022-12-01T02:49:51.150Z,79.50
2022-12-01T02:52:19.757Z,79.64
2022-12-01T02:54:48.424Z,79.73
2022-12-01T02:57:16.750Z,79.80
2022-12-01T02:59:51.000Z,79.74
2022-12-01T03:02:49.447Z,79.67
2022-12-01T03:05:45.468Z,79.83
2022-12-01T03:09:08.212Z,79.82
2022-12-01T03:11:46.626Z,79.85
2022-12-01T03:14:45.152Z,80.04
2022-12-01T03:17:18.966Z,80.05
2022-12-01T03:19:57.514Z,80.22
2022-12-01T03:22:33.386Z,80.01
2022-12-01T03:25:03.988Z,80.03
2022-12-01T03:27:35.801Z,80.45
2022-12-01T03:30:04.433Z,80.28
2022-12-01T03:32:38.646Z,80.24
2022-12-01T03:35:16.235Z,80.24
2022-12-01T03:38:07.888Z,80.34
2022-12-01T03:40:37.196Z,80.55
2022-12-01T03:43:09.908Z,80.52
2022-12-01T03:46:10.688Z,80.75
2022-12-01T03:48:39.658Z,80.85
2022-12-01T03:51:15.251Z,80.57
2022-12-01T03:53:47.939Z,80.32
2022-12-01T03:56:19.210Z,80.11
2022-12-01T03:58:49.430Z,79.94
2022-12-01T04:01:16.085Z,79.69
2022-12-01T04:03:46.810Z,79.60
2022-12-01T04:06:14.154Z,79.49
2022-12-01T04:08:41.220Z,79.58
2022-12-01T04:11:32.186Z,79.65
2022-12-01T04:13:59.614Z,79.92
2022-12-01T04:16:26.289Z,80.26
2022-12-01T04:18:53.009Z,80.03
2022-12-01T04:21:19.644Z,80.04
2022-12-01T04:24:01.588Z,80.07
2022-12-01T04:26:36.447Z,80.25
2022-12-01T04:29:08.568Z,80.16
2022-12-01T04:31:35.875Z,80.44
2022-12-01T04:34:02.792Z,80.33
2022-12-01T04:36:35.492Z,80.19
2022-12-01T04:39:03.312Z,80.19
2022-12-01T04:41:29.989Z,80.27
2022-12-01T04:43:56.688Z,80.23
2022-12-01T04:46:24.472Z,80.26
2022-12-01T04:48:51.666Z,80.13
2022-12-01T04:51:18.539Z,80.05
2022-12-01T04:53:45.127Z,80.04
2022-12-01T04:56:11.835Z,80.10
2022-12-01T04:58:38.561Z,79.99
2022-12-01T05:01:09.957Z,80.00
2022-12-01T05:03:43.172Z,79.86
2022-12-01T05:06:13.998Z,79.60
2022-12-01T05:08:41.579Z,79.39
2022-12-01T05:11:11.380Z,79.18
2022-12-01T05:13:40.869Z,79.06
2022-12-01T05:16:14.269Z,79.18
2022-12-01T05:18:41.672Z,79.45
2022-12-01T05:21:11.178Z,79.45
2022-12-01T05:23:39.238Z,79.45
2022-12-01T05:26:09.006Z,79.43
2022-12-01T05:28:36.284Z,79.26
2022-12-01T05:31:03.432Z,79.24
2022-12-01T05:33:30.482Z,79.11
2022-12-01T05:35:57.220Z,79.13
2022-12-01T05:38:23.930Z,79.19
2022-12-01T05:40:52.907Z,79.54
2022-12-01T05:43:29.105Z,79.62
2022-12-01T05:45:57.825Z,79.51
2022-12-01T05:48:25.103Z,79.40
2022-12-01T05:50:51.983Z,79.34
2022-12-01T05:53:19.761Z,79.49
2022-12-01T05:55:46.644Z,79.34
2022-12-01T05:58:13.360Z,79.21
2022-12-01T06:00:45.699Z,79.12
2022-12-01T06:03:14.093Z,79.06
2022-12-01T06:05:41.068Z,79.10
2022-12-01T06:08:08.197Z,79.00
2022-12-01T06:10:35.147Z,78.76
2022-12-01T06:13:01.726Z,78.58
2022-12-01T06:15:28.425Z,78.78
2022-12-01T06:17:55.177Z,78.66
2022-12-01T06:20:23.508Z,78.52
2022-12-01T06:22:50.244Z,78.60
2022-12-01T06:25:17.338Z,78.72
2022-12-01T06:27:44.094Z,78.78
2022-12-01T06:30:11.049Z,78.76
2022-12-01T06:32:38.236Z,78.71
2022-12-01T06:35:05.527Z,78.50
2022-12-01T06:37:32.777Z,78.50
2022-12-01T06:39:59.480Z,78.39
2022-12-01T06:42:30.596Z,78.20
2022-12-01T06:44:57.305Z,78.14
2022-12-01T06:47:23.899Z,78.01
2022-12-01T06:49:50.932Z,78.02
2022-12-01T06:52:18.076Z,78.04
2022-12-01T06:54:44.781Z,77.95
2022-12-01T06:57:11.473Z,77.95
2022-12-01T06:59:38.503Z,77.95
2022-12-01T07:02:05.114Z,77.90
2022-12-01T07:04:31.829Z,77.97
2022-12-01T07:06:58.423Z,77.91
2022-12-01T07:09:24.984Z,77.83
2022-12-01T07:11:51.859Z,77.71
2022-12-01T07:14:25.135Z,77.58
2022-12-01T07:16:51.928Z,77.32
2022-12-01T07:19:18.873Z,77.06
2022-12-01T07:21:45.774Z,77.33
2022-12-01T07:24:12.586Z,77.35
2022-12-01T07:26:41.221Z,77.42
2022-12-01T07:29:09.320Z,77.59
2022-12-01T07:31:37.799Z,77.71
2022-12-01T07:34:05.395Z,77.51
2022-12-01T07:36:32.287Z,77.60
2022-12-01T07:38:58.898Z,77.86
2022-12-01T07:41:25.626Z,78.01
2022-12-01T07:43:52.237Z,77.80
2022-12-01T07:46:24.032Z,77.97
2022-12-01T07:48:53.022Z,78.14
2022-12-01T07:51:21.165Z,78.20
2022-12-01T07:53:49.845Z,78.22
2022-12-01T07:56:18.050Z,78.18
2022-12-01T07:58:44.809Z,78.02
2022-12-01T08:01:14.111Z,77.72
2022-12-01T08:03:41.507Z,77.69
2022-12-01T08:06:09.507Z,77.82
2022-12-01T08:08:39.510Z,77.67
2022-12-01T08:11:23.459Z,77.44
2022-12-01T08:13:52.456Z,77.42
2022-12-01T08:16:23.008Z,77.19
2022-12-01T08:18:50.761Z,77.32
2022-12-01T08:21:20.990Z,77.14
2022-12-01T08:23:52.069Z,77.26
2022-12-01T08:26:19.978Z,77.15
2022-12-01T08:28:47.024Z,77.27
2022-12-01T08:31:19.726Z,77.40
2022-12-01T08:33:48.309Z,77.41
2022-12-01T08:36:15.666Z,77.32
2022-12-01T08:38:49.861Z,77.14
2022-12-01T08:41:17.331Z,77.28
2022-12-01T08:44:08.855Z,77.33
2022-12-01T08:46:35.622Z,77.36
2022-12-01T08:49:06.822Z,77.17
2022-12-01T08:51:33.734Z,76.99
2022-12-01T08:54:00.925Z,77.01
2022-12-01T08:56:37.903Z,77.00
2022-12-01T08:59:05.254Z,76.88
2022-12-01T09:01:33.177Z,76.87
2022-12-01T09:04:05.878Z,76.56
2022-12-01T09:06:39.683Z,76.11
2022-12-01T09:09:08.532Z,76.16
2022-12-01T09:11:35.261Z,76.06
2022-12-01T09:14:01.927Z,76.08
2022-12-01T09:16:28.729Z,76.00
2022-12-01T09:18:55.696Z,76.07
2022-12-01T09:21:26.783Z,76.03
2022-12-01T09:23:54.210Z,76.06
2022-12-01T09:26:21.045Z,76.16
2022-12-01T09:29:00.854Z,76.16
2022-12-01T09:31:28.125Z,76.18
2022-12-01T09:34:01.205Z,75.97
2022-12-01T09:36:30.649Z,75.96
2022-12-01T09:38:58.139Z,75.50
2022-12-01T09:41:35.457Z,75.67
2022-12-01T09:44:14.477Z,75.83
2022-12-01T09:46:56.000Z,76.03
2022-12-01T09:49:29.318Z,76.09
2022-12-01T09:51:55.978Z,76.25
2022-12-01T09:54:22.694Z,75.51
2022-12-01T09:56:55.791Z,75.18
2022-12-01T09:59:27.415Z,75.16
2022-12-01T10:02:00.157Z,75.13
2022-12-01T10:04:41.331Z,75.01
2022-12-01T10:07:25.792Z,74.76
2022-12-01T10:09:59.710Z,74.66
2022-12-01T10:12:32.487Z,74.48
2022-12-01T10:15:08.190Z,74.65
2022-12-01T10:18:05.507Z,74.47
2022-12-01T10:20:45.811Z,74.21
2022-12-01T10:23:30.720Z,74.45
2022-12-01T10:26:08.752Z,74.73
2022-12-01T10:29:09.896Z,74.65
2022-12-01T10:31:53.298Z,74.62
2022-12-01T10:34:38.111Z,74.66
2022-12-01T10:37:04.873Z,74.51
2022-12-01T10:39:38.908Z,74.67
2022-12-01T10:42:37.680Z,74.95
2022-12-01T10:45:14.385Z,74.97
2022-12-01T10:48:08.469Z,75.15
2022-12-01T10:50:36.361Z,74.66
2022-12-01T10:53:04.050Z,74.55
2022-12-01T10:55:36.319Z,74.65
2022-12-01T10:58:14.229Z,74.57
2022-12-01T11:00:59.476Z,74.35
2022-12-01T11:03:35.021Z,74.29
2022-12-01T11:06:05.999Z,74.41
2022-12-01T11:08:51.932Z,74.25
2022-12-01T11:11:35.993Z,73.98
2022-12-01T11:14:16.709Z,73.37
2022-12-01T11:16:47.237Z,73.14
2022-12-01T11:19:23.552Z,73.33
2022-12-01T11:22:01.293Z,73.42
2022-12-01T11:24:44.097Z,73.30
2022-12-01T11:27:21.539Z,73.48
2022-12-01T11:29:56.588Z,73.37
2022-12-01T11:32:28.215Z,72.85
2022-12-01T11:35:06.392Z,72.68
2022-12-01T11:37:39.503Z,72.76
2022-12-01T11:40:16.744Z,72.79
2022-12-01T11:42:50.363Z,73.04
2022-12-01T11:45:40.309Z,73.06
2022-12-01T11:48:12.915Z,72.94
2022-12-01T11:50:43.928Z,72.93
2022-12-01T11:53:42.029Z,72.86
2022-12-01T11:56:16.767Z,72.36
2022-12-01T11:58:46.261Z,72.62
2022-12-01T12:01:41.177Z,72.77
2022-12-01T12:04:17.932Z,72.30
2022-12-01T12:07:31.669Z,72.42
2022-12-01T12:10:14.157Z,72.72
2022-12-01T12:13:27.106Z,72.56
2022-12-01T12:16:46.832Z,72.58
2022-12-01T12:20:09.624Z,72.26
2022-12-01T12:23:19.522Z,72.57
2022-12-01T12:26:52.876Z,72.66
2022-12-01T12:29:51.585Z,72.55
2022-12-01T12:32:53.099Z,72.45
2022-12-01T12:35:42.478Z,72.86
2022-12-01T12:38:42.682Z,73.11
2022-12-01T12:41:34.043Z,73.24
2022-12-01T12:44:13.554Z,73.15
2022-12-01T12:47:25.991Z,73.07
2022-12-01T12:50:24.421Z,73.10
2022-12-01T12:52:59.410Z,72.97
2022-12-01T12:55:53.145Z,72.71
2022-12-01T12:58:29.682Z,73.00
2022-12-01T13:01:03.985Z,72.42
2022-12-01T13:04:00.921Z,72.39
2022-12-01T13:06:59.974Z,72.44
2022-12-01T13:09:35.395Z,72.41
2022-12-01T13:12:31.017Z,72.53
2022-12-01T13:15:18.002Z,72.64
2022-12-01T13:18:13.766Z,72.66
2022-12-01T13:20:41.050Z,72.51
2022-12-01T13:23:16.084Z,72.49
2022-12-01T13:25:51.320Z,72.40
2022-12-01T13:28:29.266Z,72.47
2022-12-01T13:31:05.815Z,72.58
2022-12-01T13:33:35.228Z,72.99
2022-12-01T13:39:20.020Z,73.26
2022-12-01T13:41:59.087Z,73.48
2022-12-01T13:44:38.896Z,73.41
2022-12-01T13:47:11.600Z,73.59
2022-12-01T13:49:45.654Z,73.52
2022-12-01T13:52:21.425Z,73.59
2022-12-01T13:55:10.002Z,73.76
2022-12-01T13:58:00.012Z,73.83
2022-12-01T14:00:34.501Z,73.84
2022-12-01T14:03:16.685Z,73.77
2022-12-01T14:05:53.452Z,73.63
2022-12-01T14:08:33.561Z,73.70
2022-12-01T14:11:06.014Z,73.71
2022-12-01T14:14:19.985Z,73.73
2022-12-01T14:16:55.555Z,73.63
2022-12-01T14:19:44.000Z,73.63
2022-12-01T14:22:32.781Z,73.57
2022-12-01T14:25:00.361Z,73.79
2022-12-01T14:27:56.497Z,73.83
2022-12-01T14:30:47.659Z,73.89
2022-12-01T14:33:39.410Z,73.72
2022-12-01T14:36:25.088Z,73.90
2022-12-01T14:38:57.685Z,73.89
2022-12-01T14:41:50.910Z,73.73
2022-12-01T14:44:40.876Z,73.87
2022-12-01T14:47:29.297Z,73.90
2022-12-01T14:50:02.189Z,73.95
2022-12-01T14:52:28.760Z,74.00
2022-12-01T14:54:59.063Z,73.93
2022-12-01T14:57:34.981Z,73.89
2022-12-01T15:00:10.995Z,73.80
2022-12-01T15:03:03.389Z,73.77
2022-12-01T15:05:32.472Z,73.60
2022-12-01T15:08:40.861Z,73.64
2022-12-01T15:11:11.123Z,73.69
2022-12-01T15:13:49.878Z,73.48
2022-12-01T15:16:20.784Z,73.48
2022-12-01T15:18:47.812Z,73.39
2022-12-01T15:21:34.197Z,73.09
2022-12-01T15:24:04.752Z,73.15
2022-12-01T15:26:35.844Z,73.36
2022-12-01T15:29:21.800Z,73.47
2022-12-01T15:31:54.787Z,73.48
2022-12-01T15:34:36.529Z,73.42
2022-12-01T15:37:07.195Z,73.49
2022-12-01T15:39:47.186Z,73.57
2022-12-01T15:42:30.438Z,73.43
2022-12-01T15:45:20.087Z,73.32
2022-12-01T15:47:50.658Z,73.41
2022-12-01T15:50:41.267Z,74.02
2022-12-01T15:53:29.448Z,73.57
2022-12-01T15:55:59.251Z,73.35
2022-12-01T15:58:35.029Z,73.24
2022-12-01T16:01:09.021Z,73.13
2022-12-01T16:03:59.451Z,73.12
2022-12-01T16:06:31.005Z,73.16
2022-12-01T16:09:02.290Z,73.34
2022-12-01T16:11:29.179Z,73.26
2022-12-01T16:14:00.296Z,73.29
2022-12-01T16:16:49.363Z,73.13
2022-12-01T16:19:23.565Z,73.20
2022-12-01T16:21:54.739Z,73.31
2022-12-01T16:24:36.137Z,73.39
2022-12-01T16:27:08.003Z,73.40
2022-12-01T16:29:49.989Z,73.49
2022-12-01T16:32:31.214Z,73.37
2022-12-01T16:34:58.223Z,73.45
2022-12-01T16:37:27.183Z,73.21
2022-12-01T16:39:53.965Z,73.07
2022-12-01T16:42:21.996Z,73.23
2022-12-01T16:44:51.375Z,73.09
2022-12-01T16:47:25.924Z,73.00
2022-12-01T16:49:53.045Z,72.91
2022-12-01T16:55:38.384Z,72.81
2022-12-01T16:58:05.775Z,72.67
2022-12-01T17:00:32.889Z,72.57
2022-12-01T17:03:00.391Z,72.43
2022-12-01T17:05:27.852Z,72.37
2022-12-01T17:07:56.612Z,72.44
2022-12-01T17:10:24.010Z,72.40
2022-12-01T17:12:51.368Z,72.40
2022-12-01T17:15:18.294Z,72.40
2022-12-01T17:17:46.159Z,72.38
2022-12-01T17:20:13.416Z,72.34
2022-12-01T17:22:40.097Z,72.37
2022-12-01T17:25:09.875Z,72.41
2022-12-01T17:27:38.048Z,72.53
2022-12-01T17:30:07.160Z,72.69
2022-12-01T17:32:34.496Z,72.67
2022-12-01T17:35:01.145Z,72.79
2022-12-01T17:37:27.927Z,72.72
2022-12-01T17:39:54.812Z,72.67
2022-12-01T17:42:21.944Z,72.56
2022-12-01T17:44:48.949Z,72.39
2022-12-01T17:47:16.009Z,72.35
2022-12-01T17:49:42.619Z,72.27
2022-12-01T17:52:09.344Z,72.31
2022-12-01T17:54:36.008Z,72.38
2022-12-01T17:57:02.674Z,72.26
2022-12-01T17:59:29.352Z,72.20
2022-12-01T18:01:56.034Z,72.22
2022-12-01T18:04:22.717Z,72.23
2022-12-01T18:06:54.025Z,72.34
2022-12-01T18:09:22.137Z,72.48
2022-12-01T18:11:49.354Z,72.39
2022-12-01T18:14:19.095Z,72.39
2022-12-01T18:16:46.055Z,72.45
2022-12-01T18:19:13.208Z,72.54
2022-12-01T18:21:40.459Z,72.68
2022-12-01T18:24:10.334Z,72.60
2022-12-01T18:26:39.951Z,72.53
2022-12-01T18:29:15.947Z,72.50
2022-12-01T18:31:43.291Z,72.48
2022-12-01T18:34:11.287Z,72.46
2022-12-01T18:36:41.156Z,72.59
2022-12-01T18:39:09.623Z,72.54
2022-12-01T18:41:36.743Z,72.54
2022-12-01T18:44:03.986Z,72.50
2022-12-01T18:46:31.689Z,72.52
2022-12-01T18:49:02.865Z,72.53
2022-12-01T18:51:32.829Z,72.50
2022-12-01T18:54:01.918Z,72.50
2022-12-01T18:56:29.468Z,72.48
2022-12-01T18:59:03.803Z,72.50
2022-12-01T19:01:37.791Z,72.70
2022-12-01T19:04:06.865Z,72.82
2022-12-01T19:06:37.430Z,72.68
2022-12-01T19:09:07.180Z,72.58
2022-12-01T19:11:33.737Z,72.50
2022-12-01T19:14:00.565Z,72.46
2022-12-01T19:16:27.776Z,72.41
2022-12-01T19:18:54.603Z,72.46
2022-12-01T19:21:21.419Z,72.50
2022-12-01T19:23:49.884Z,72.58
2022-12-01T19:26:19.669Z,72.71
2022-12-01T19:28:47.942Z,72.77
2022-12-01T19:31:19.899Z,72.80
2022-12-01T19:33:47.314Z,72.80
2022-12-01T19:36:19.282Z,72.90
2022-12-01T19:38:46.950Z,72.90
2022-12-01T19:41:15.502Z,72.92
2022-12-01T19:43:43.037Z,72.84
2022-12-01T19:46:13.961Z,72.52
2022-12-01T19:48:41.767Z,72.33
2022-12-01T19:51:20.643Z,72.12
2022-12-01T19:53:47.892Z,72.05
2022-12-01T19:56:14.881Z,72.17
2022-12-01T19:58:42.247Z,72.27
2022-12-01T20:01:12.673Z,72.17
2022-12-01T20:03:42.037Z,72.19
2022-12-01T20:06:14.438Z,72.06
2022-12-01T20:08:41.168Z,71.75
2022-12-01T20:11:08.924Z,71.50
2022-12-01T20:13:39.284Z,71.40
2022-12-01T20:16:09.203Z,71.40
2022-12-01T20:18:37.392Z,71.38
2022-12-01T20:21:21.913Z,71.39
2022-12-01T20:24:05.389Z,71.40
2022-12-01T20:26:44.181Z,71.44
2022-12-01T20:29:15.710Z,71.47
2022-12-01T20:31:43.811Z,71.76
2022-12-01T20:34:16.262Z,72.08
2022-12-01T20:36:42.898Z,72.10
2022-12-01T20:39:12.053Z,72.08
2022-12-01T20:41:40.641Z,72.00
2022-12-01T20:44:08.703Z,71.98
2022-12-01T20:46:37.655Z,72.02
2022-12-01T20:49:05.390Z,72.06
2022-12-01T20:51:33.483Z,72.01
2022-12-01T20:54:27.271Z,72.02
2022-12-01T20:56:49.612Z,72.03
2022-12-01T20:59:16.395Z,72.06
2022-12-01T21:01:43.097Z,72.10
2022-12-01T21:04:09.811Z,72.18
2022-12-01T21:06:36.486Z,72.20
2022-12-01T21:09:04.791Z,72.23
2022-12-01T21:11:57.983Z,72.36
2022-12-01T21:14:32.907Z,72.49
2022-12-01T21:17:12.656Z,72.46
2022-12-01T21:19:56.512Z,72.33
2022-12-01T21:22:25.389Z,72.32
2022-12-01T21:24:57.045Z,72.31
2022-12-01T21:27:23.696Z,72.31
2022-12-01T21:29:50.897Z,72.30
2022-12-01T21:32:33.861Z,72.31
2022-12-01T21:35:16.479Z,72.30
2022-12-01T21:37:43.399Z,72.20
2022-12-01T21:40:23.531Z,72.10
2022-12-01T21:42:51.573Z,72.11
2022-12-01T21:45:24.319Z,72.09
2022-12-01T21:47:50.987Z,72.02
2022-12-01T21:50:24.788Z,72.00
2022-12-01T21:52:52.191Z,72.04
2022-12-01T21:55:18.739Z,72.00
2022-12-01T21:57:49.143Z,72.02
2022-12-01T22:00:29.861Z,72.10
2022-12-01T22:03:08.610Z,72.11
2022-12-01T22:05:40.537Z,72.20
2022-12-01T22:08:33.099Z,72.21
2022-12-01T22:11:12.700Z,72.17
2022-12-01T22:13:47.263Z,72.10
2022-12-01T22:16:34.354Z,72.24
2022-12-01T22:19:31.108Z,72.04
2022-12-01T22:22:10.667Z,71.95
2022-12-01T22:24:56.837Z,72.01
2022-12-01T22:27:34.605Z,72.02
2022-12-01T22:30:07.335Z,71.91
2022-12-01T22:32:35.565Z,71.98
2022-12-01T22:35:22.539Z,71.92
2022-12-01T22:38:06.004Z,71.86
2022-12-01T22:40:47.804Z,71.98
2022-12-01T22:43:20.000Z,72.06
2022-12-01T22:45:47.895Z,72.14
2022-12-01T22:48:37.802Z,72.21
2022-12-01T22:51:13.878Z,72.30
2022-12-01T22:53:42.237Z,72.41
2022-12-01T22:56:24.556Z,72.46
2022-12-01T22:58:51.337Z,72.50
2022-12-01T23:01:33.729Z,72.54
2022-12-01T23:04:26.761Z,72.68
2022-12-01T23:07:17.050Z,72.64
2022-12-01T23:09:44.699Z,72.67
2022-12-01T23:12:11.266Z,72.62
2022-12-01T23:14:52.041Z,72.69
2022-12-01T23:17:23.170Z,72.77
2022-12-01T23:19:52.936Z,72.80
2022-12-01T23:22:20.219Z,72.81
2022-12-01T23:24:47.068Z,72.88
2022-12-01T23:27:16.315Z,72.90
2022-12-01T23:29:43.013Z,72.96
2022-12-01T23:32:11.152Z,73.01
2022-12-01T23:34:38.403Z,72.96
2022-12-01T23:37:34.910Z,72.89
2022-12-01T23:40:14.664Z,72.91
2022-12-01T23:42:42.171Z,72.97
2022-12-01T23:45:17.945Z,72.90
2022-12-01T23:47:44.641Z,72.90
2022-12-01T23:50:20.423Z,72.90
2022-12-01T23:52:47.602Z,72.97
2022-12-01T23:55:26.458Z,72.98
2022-12-01T23:57:54.052Z,72.91
